Time;durP1;ratioP1;P1;durP2;ratioP2;P2;SDS_P1;SDS_P2;PMS_P1;PMS_P2;Temp;Humidity;BMP_temperature;BMP_pressure;BME280_temperature;BME280_humidity;BME280_pressure;Samples;Min_cycle;Max_cycle;Signal;HPM_P1;HPM_P2
2022/03/02 18:15:04;;;;;;;8.98;3.65;;;;;;;18.66;41.50;102289.69;5073477;27;1248397;-43
2022/03/02 18:17:31;;;;;;;4.95;3.17;;;;;;;18.83;41.17;102283.84;5115746;28;20174;-42
2022/03/02 18:19:57;;;;;;;5.93;3.80;;;;;;;19.02;41.05;102293.97;5110504;28;20304;-43
2022/03/02 18:22:24;;;;;;;5.80;3.60;;;;;;;19.17;40.97;102287.31;5115202;28;20689;-42
2022/03/02 18:24:50;;;;;;;5.47;3.55;;;;;;;19.31;40.79;102296.94;5112280;27;20713;-40
2022/03/02 18:27:18;;;;;;;5.95;3.47;;;;;;;19.43;40.50;102287.84;5109848;27;20081;-42
2022/03/02 18:29:44;;;;;;;7.05;4.10;;;;;;;19.56;41.13;102284.16;5110482;28;20069;-40
2022/03/02 18:32:11;;;;;;;7.72;3.80;;;;;;;19.68;40.96;102293.91;5112236;28;20043;-41
2022/03/02 18:34:38;;;;;;;6.55;4.30;;;;;;;19.82;40.71;102295.41;5110572;28;20118;-41
2022/03/02 18:37:05;;;;;;;8.38;4.70;;;;;;;19.94;41.19;102284.50;5112009;28;20051;-46
2022/03/02 18:39:32;;;;;;;8.65;5.00;;;;;;;20.04;41.57;102278.31;5113167;28;20045;-45
2022/03/02 18:42:00;;;;;;;8.50;4.93;;;;;;;20.11;41.21;102269.56;5110539;28;20430;-44
2022/03/02 18:44:29;;;;;;;6.90;4.65;;;;;;;20.17;41.50;102270.88;5109057;27;20143;-45
2022/03/02 18:46:56;;;;;;;6.20;3.92;;;;;;;20.22;41.61;102271.31;5110528;27;20055;-45
2022/03/02 18:49:28;;;;;;;7.93;3.92;;;;;;;20.28;41.25;102264.56;5110458;28;20044;-45
2022/03/02 18:51:56;;;;;;;7.22;4.13;;;;;;;20.33;41.16;102267.69;5113918;28;20044;-44
2022/03/02 18:54:24;;;;;;;7.10;4.22;;;;;;;20.36;41.63;102257.50;5110422;28;20058;-47
2022/03/02 18:56:51;;;;;;;7.85;4.55;;;;;;;20.41;41.58;102263.34;5113735;27;20040;-44
2022/03/02 18:59:18;;;;;;;9.73;5.00;;;;;;;20.45;40.75;102261.22;5105840;28;20036;-43
2022/03/02 19:01:47;;;;;;;6.13;3.88;;;;;;;20.45;41.31;102259.38;5109782;28;20130;-45
2022/03/02 19:04:15;;;;;;;7.35;4.93;;;;;;;20.46;41.13;102257.53;5110899;28;20150;-43
2022/03/02 19:06:42;;;;;;;7.18;4.45;;;;;;;20.46;40.75;102262.94;5112241;28;20073;-44
2022/03/02 19:09:14;;;;;;;7.22;4.30;;;;;;;20.43;41.15;102263.22;5113726;28;20047;-45
2022/03/02 19:11:41;;;;;;;8.70;4.90;;;;;;;20.41;40.99;102266.03;5107765;28;20496;-43
2022/03/02 19:14:07;;;;;;;7.63;4.57;;;;;;;20.42;41.19;102264.19;5111921;28;20054;-42
2022/03/02 19:16:35;;;;;;;8.15;4.80;;;;;;;20.43;41.15;102265.91;5110267;28;20138;-43
2022/03/02 19:19:03;;;;;;;7.72;5.07;;;;;;;20.45;41.06;102266.63;5113646;27;21216;-46
2022/03/02 19:21:31;;;;;;;7.22;4.40;;;;;;;20.45;41.41;102266.63;5112968;28;20048;-46
2022/03/02 19:24:00;;;;;;;6.95;4.72;;;;;;;20.43;41.67;102265.91;5109672;28;20040;-44
2022/03/02 19:26:27;;;;;;;6.85;4.88;;;;;;;20.42;41.21;102251.59;5093077;28;20164;-45
2022/03/02 19:28:53;;;;;;;7.53;4.93;;;;;;;20.40;41.34;102258.94;5093869;28;20039;-45
2022/03/02 19:31:20;;;;;;;7.47;4.60;;;;;;;20.40;41.36;102258.09;5099128;28;20056;-43
2022/03/02 19:33:47;;;;;;;6.90;4.80;;;;;;;20.39;41.01;102259.94;5097294;28;20114;-42
2022/03/02 19:36:14;;;;;;;6.18;4.32;;;;;;;20.38;41.07;102254.66;5096431;28;20793;-42
2022/03/02 19:41:27;;;;;;;9.82;5.03;;;;;;;20.38;41.19;102254.66;5096502;28;20155;-42
2022/03/02 19:43:54;;;;;;;6.55;4.50;;;;;;;20.38;40.84;102251.97;5098302;28;20053;-43
2022/03/02 19:46:22;;;;;;;7.57;4.65;;;;;;;20.37;40.80;102259.22;5095791;28;20074;-45
2022/03/02 19:48:51;;;;;;;7.45;4.72;;;;;;;20.38;40.67;102258.25;5098342;28;20067;-44
2022/03/02 19:51:19;;;;;;;7.53;4.65;;;;;;;20.37;40.69;102266.44;5097622;28;20139;-43
2022/03/02 19:53:49;;;;;;;8.55;4.80;;;;;;;20.36;41.09;102265.59;5096969;28;20079;-42
2022/03/02 19:56:17;;;;;;;7.47;4.82;;;;;;;20.35;40.98;102273.81;5101968;28;20463;-44
2022/03/02 19:58:44;;;;;;;6.78;4.43;;;;;;;20.35;41.16;102274.66;5093946;28;20126;-44
2022/03/02 20:01:11;;;;;;;7.68;5.05;;;;;;;20.34;40.59;102270.28;5098264;28;20159;-46
2022/03/02 20:03:39;;;;;;;7.72;4.85;;;;;;;20.36;40.49;102272.81;5096131;28;20551;-46
2022/03/02 20:06:10;;;;;;;6.75;4.30;;;;;;;20.38;40.87;102276.22;5096438;28;20127;-47
2022/03/02 20:08:44;;;;;;;7.35;4.50;;;;;;;20.39;40.82;102262.63;5097345;28;20123;-45
2022/03/02 20:11:13;;;;;;;9.95;4.93;;;;;;;20.40;40.66;102266.19;5097934;28;21194;-46
2022/03/02 20:13:40;;;;;;;8.70;4.30;;;;;;;20.42;40.98;102266.88;5095134;28;20044;-41
2022/03/02 20:16:07;;;;;;;5.85;4.22;;;;;;;20.43;41.15;102263.22;5099484;28;20035;-44
2022/03/02 20:18:34;;;;;;;5.13;3.88;;;;;;;20.43;40.62;102261.38;5101506;28;20043;-43
2022/03/02 20:21:02;;;;;;;8.70;4.43;;;;;;;20.41;40.82;102260.66;5104649;28;20044;-43
2022/03/02 20:23:30;;;;;;;5.90;4.22;;;;;;;20.38;40.26;102265.44;5097795;28;20417;-41
2022/03/02 20:25:58;;;;;;;7.05;4.07;;;;;;;20.36;40.70;102262.03;5103197;28;20135;-44
2022/03/02 20:28:25;;;;;;;6.55;3.83;;;;;;;20.32;40.13;102263.31;5100376;28;20131;-41
2022/03/02 20:30:54;;;;;;;6.68;4.30;;;;;;;20.29;40.41;102264.41;5100619;28;20191;-41
2022/03/02 20:33:24;;;;;;;6.15;4.20;;;;;;;20.25;40.34;102267.50;5099348;28;20067;-42
2022/03/02 20:35:52;;;;;;;7.72;4.13;;;;;;;20.19;40.18;102272.44;5096122;28;20146;-42
2022/03/02 20:38:21;;;;;;;6.00;4.20;;;;;;;20.16;40.41;102266.47;5102149;28;20076;-42
2022/03/02 20:40:48;;;;;;;7.55;4.32;;;;;;;20.11;39.59;102264.19;5097541;28;20056;-45
2022/03/02 20:43:16;;;;;;;6.75;4.55;;;;;;;20.07;39.70;102261.91;5102201;28;20151;-42
2022/03/02 20:45:44;;;;;;;7.47;4.55;;;;;;;20.02;40.31;102258.72;5101089;28;20078;-46
2022/03/02 20:48:13;;;;;;;5.85;4.28;;;;;;;19.96;40.03;102260.97;5101306;28;20058;-43
2022/03/02 20:50:41;;;;;;;6.43;4.18;;;;;;;19.92;40.28;102258.69;5102350;28;20047;-43
2022/03/02 20:53:09;;;;;;;7.32;4.43;;;;;;;19.85;40.08;102263.72;5096803;28;20079;-43
2022/03/02 20:55:37;;;;;;;5.85;4.43;;;;;;;19.82;39.89;102258.63;5104053;28;20040;-44
2022/03/02 20:58:05;;;;;;;8.45;4.53;;;;;;;19.78;39.60;102262.56;5095752;28;20050;-43
2022/03/02 21:00:32;;;;;;;4.50;3.70;;;;;;;19.72;39.96;102263.91;5102571;28;20123;-43
2022/03/02 21:02:59;;;;;;;6.40;4.13;;;;;;;19.67;39.76;102259.91;5098827;28;20089;-44
2022/03/02 21:05:46;;;;;;;5.95;3.97;;;;;;;19.62;40.14;102262.16;5100712;28;20039;-44
2022/03/02 21:08:14;;;;;;;6.18;3.95;;;;;;;19.56;39.80;102255.41;5102153;28;20067;-43
2022/03/02 21:10:41;;;;;;;6.53;4.32;;;;;;;19.52;39.88;102259.34;5100331;28;20135;-42
2022/03/02 21:13:07;;;;;;;6.88;4.43;;;;;;;19.47;39.77;102250.81;5099132;28;20055;-42
2022/03/02 21:15:34;;;;;;;6.55;4.55;;;;;;;19.42;39.80;102255.72;5100936;28;20214;-43
2022/03/02 21:18:02;;;;;;;7.20;4.55;;;;;;;19.37;40.48;102256.09;5101350;28;20170;-43
2022/03/02 21:20:29;;;;;;;5.88;4.00;;;;;;;19.33;40.09;102245.72;5100857;28;20690;-43
2022/03/02 21:22:56;;;;;;;7.78;4.35;;;;;;;19.29;40.15;102249.66;5099136;28;20131;-43
2022/03/02 21:25:23;;;;;;;5.88;4.35;;;;;;;19.24;39.93;102250.03;5100864;28;20124;-43
2022/03/02 21:27:49;;;;;;;4.93;3.88;;;;;;;19.20;39.61;102240.53;5103930;28;20040;-43
2022/03/02 21:30:17;;;;;;;6.10;4.43;;;;;;;19.16;40.05;102244.44;5099851;28;20043;-43
2022/03/02 21:32:45;;;;;;;6.38;4.35;;;;;;;19.12;40.14;102241.16;5095362;28;20047;-43
2022/03/02 21:35:12;;;;;;;6.10;4.10;;;;;;;19.08;40.07;102241.53;5098816;28;20486;-43
2022/03/02 21:37:41;;;;;;;6.55;4.18;;;;;;;19.04;40.05;102234.72;5100901;28;20055;-43
2022/03/02 21:40:12;;;;;;;7.03;4.28;;;;;;;19.01;39.99;102241.19;5100886;28;20461;-43
2022/03/02 21:42:39;;;;;;;7.07;4.65;;;;;;;18.97;40.11;102239.72;5099088;28;20044;-43
2022/03/02 21:45:06;;;;;;;6.85;4.60;;;;;;;18.93;40.12;102239.13;5101230;28;20602;-43
2022/03/02 21:47:33;;;;;;;6.65;4.20;;;;;;;18.90;40.42;102243.91;5100238;28;20053;-43
2022/03/02 21:49:59;;;;;;;6.97;4.28;;;;;;;18.86;40.29;102242.44;5100874;28;20073;-42
2022/03/02 21:52:27;;;;;;;7.18;4.88;;;;;;;18.82;40.06;102241.84;5101960;28;20462;-42
2022/03/02 21:54:54;;;;;;;6.68;4.65;;;;;;;18.79;40.70;102243.94;5100426;28;20047;-43
2022/03/02 21:57:21;;;;;;;6.63;4.63;;;;;;;18.74;40.80;102245.16;5100120;28;20304;-45
2022/03/02 21:59:47;;;;;;;6.97;4.85;;;;;;;18.72;40.32;102239.03;5098454;28;20035;-42
2022/03/02 22:02:15;;;;;;;6.57;4.53;;;;;;;18.69;40.67;102247.34;5099453;28;20062;-42
2022/03/02 22:04:42;;;;;;;6.25;4.15;;;;;;;18.65;40.70;102235.13;5103573;28;20039;-43
2022/03/02 22:07:09;;;;;;;7.35;4.53;;;;;;;18.62;40.74;102231.84;5103367;28;20127;-43
2022/03/02 22:09:36;;;;;;;7.38;4.70;;;;;;;18.58;40.43;102223.16;5102117;28;20166;-42
2022/03/02 22:12:02;;;;;;;7.32;4.80;;;;;;;18.55;40.57;102228.78;5101167;28;20056;-43
2022/03/02 22:14:29;;;;;;;5.65;4.03;;;;;;;18.54;40.60;102231.59;5103080;28;20055;-43
2022/03/02 22:16:56;;;;;;;6.72;4.50;;;;;;;18.51;40.96;102230.00;5098492;28;20580;-41
2022/03/02 22:19:22;;;;;;;7.03;4.57;;;;;;;18.48;40.91;102231.09;5103407;28;20518;-42
2022/03/02 22:21:49;;;;;;;8.30;5.07;;;;;;;18.46;40.59;102234.88;5105973;28;20139;-42
2022/03/02 22:24:16;;;;;;;6.75;4.43;;;;;;;18.43;40.64;102233.28;5100585;28;20083;-43
2022/03/02 22:26:43;;;;;;;7.97;5.05;;;;;;;18.41;40.75;102229.00;5102513;28;20061;-42
2022/03/02 22:29:09;;;;;;;6.57;4.25;;;;;;;18.40;40.86;102232.69;5100013;28;20067;-43
2022/03/02 22:31:36;;;;;;;7.15;4.72;;;;;;;18.37;40.84;102227.56;5101739;28;20150;-43
2022/03/02 22:34:03;;;;;;;5.97;4.28;;;;;;;18.33;40.55;102224.28;5101906;28;20415;-43
2022/03/02 22:36:30;;;;;;;7.68;4.70;;;;;;;18.32;40.71;102224.38;5101609;28;20047;-42
2022/03/02 22:38:57;;;;;;;6.10;3.95;;;;;;;18.29;40.75;102221.94;5102779;28;20143;-43
2022/03/02 22:41:23;;;;;;;8.10;4.72;;;;;;;18.26;40.95;102215.00;5102138;28;20054;-43
2022/03/02 22:43:50;;;;;;;6.53;4.75;;;;;;;18.24;40.97;102215.09;5106481;28;20048;-42
2022/03/02 22:46:16;;;;;;;5.90;4.25;;;;;;;18.23;40.99;102229.50;5097812;28;20047;-42
2022/03/02 22:48:46;;;;;;;6.07;4.65;;;;;;;18.20;40.64;102229.75;5099249;28;20047;-42
2022/03/02 22:51:13;;;;;;;6.93;4.40;;;;;;;18.19;41.05;102224.50;5103245;28;20867;-42
2022/03/02 22:53:39;;;;;;;6.95;4.38;;;;;;;18.17;40.95;102223.75;5103117;28;20399;-42
2022/03/02 22:56:06;;;;;;;6.90;4.75;;;;;;;18.15;41.05;102220.34;5100651;28;20031;-42
2022/03/02 22:58:32;;;;;;;7.35;4.68;;;;;;;18.14;40.86;102232.94;5099973;28;20079;-42
2022/03/02 23:01:16;;;;;;;8.02;5.03;;;;;;;18.11;40.86;102225.09;5105807;28;20139;-43
2022/03/02 23:03:43;;;;;;;6.05;4.10;;;;;;;18.11;40.94;102233.16;5102282;28;20048;-42
2022/03/02 23:15:00;;;;;;;6.00;4.25;;;;;;;18.03;40.89;102215.97;5083605;28;20159;-42
2022/03/02 23:17:40;;;;;;;7.53;4.97;;;;;;;18.00;41.12;102212.53;5097827;28;20054;-42
2022/03/02 23:20:08;;;;;;;6.93;4.82;;;;;;;17.98;40.90;102222.53;5101225;28;20036;-42
2022/03/02 23:22:35;;;;;;;5.55;4.20;;;;;;;17.94;40.79;102214.84;5106570;28;20127;-42
2022/03/02 23:25:02;;;;;;;6.40;4.70;;;;;;;17.93;40.87;102221.16;5104504;28;20039;-42
2022/03/02 23:27:30;;;;;;;7.78;4.70;;;;;;;17.89;41.20;102217.00;5105905;28;20267;-42
2022/03/02 23:29:56;;;;;;;6.55;4.50;;;;;;;17.88;40.71;102212.63;5101285;28;20079;-42
2022/03/02 23:32:23;;;;;;;6.45;4.20;;;;;;;17.86;40.73;102214.59;5103010;28;20039;-42
2022/03/02 23:34:50;;;;;;;6.40;4.10;;;;;;;17.82;41.21;102219.34;5104785;28;20047;-42
2022/03/02 23:37:17;;;;;;;5.70;3.95;;;;;;;17.81;41.01;102211.38;5102598;28;20044;-42
2022/03/02 23:39:43;;;;;;;6.13;4.30;;;;;;;17.80;41.35;102209.69;5105188;28;20142;-42
2022/03/02 23:42:10;;;;;;;5.97;4.22;;;;;;;17.76;40.88;102203.72;5104053;28;20057;-42
2022/03/02 23:44:36;;;;;;;6.53;4.15;;;;;;;17.75;41.60;102199.31;5103229;28;20163;-42
2022/03/02 23:47:03;;;;;;;6.15;4.10;;;;;;;17.73;41.18;102203.94;5101395;28;20044;-43
2022/03/02 23:49:30;;;;;;;5.70;4.47;;;;;;;17.70;41.11;102196.97;5106033;28;21211;-42
2022/03/02 23:51:56;;;;;;;6.75;4.57;;;;;;;17.68;40.84;102201.59;5104058;28;20147;-42
2022/03/02 23:54:23;;;;;;;6.97;4.78;;;;;;;17.68;41.12;102204.25;5102702;28;20537;-43
2022/03/02 23:56:50;;;;;;;6.18;4.28;;;;;;;17.69;41.12;102200.63;5104846;28;20051;-42
2022/03/02 23:59:18;;;;;;;7.63;4.57;;;;;;;17.65;40.97;102199.16;5101359;28;20872;-43
